This is the latest recevied weather packets stored in our database for station/object IZ5TJI-3. If no packets are shown the sender has not sent any weather packets the latest 10 day(s).
| Time | Temp. | Humidity | Pressure | Rain* | Wind** | Luminosity | Snow |
|---|---|---|---|---|---|---|---|
| 1777897818 | 22.22° C | 41% | 1016.5 hPa | 0 mm | - | - | - |
| 1777896918 | 22.78° C | 40% | 1016.5 hPa | 0 mm | - | - | - |
| 1777896018 | 22.22° C | 41% | 1016.7 hPa | 0 mm | - | - | - |
| 1777895118 | 22.78° C | 41% | 1016.8 hPa | 0 mm | - | - | - |
| 1777894218 | 21.67° C | 41% | 1016.9 hPa | 0 mm | - | - | - |
| 1777893318 | 22.22° C | 42% | 1017 hPa | 0 mm | - | - | - |
| 1777892418 | 21.67° C | 43% | 1017.3 hPa | 0 mm | - | - | - |
| 1777891518 | 21.11° C | 43% | 1017.2 hPa | 0 mm | - | - | - |
| 1777890618 | 20.56° C | 45% | 1017.5 hPa | 0 mm | - | - | - |
| 1777889718 | 20.56° C | 46% | 1017.8 hPa | 0 mm | - | - | - |
| 1777888818 | 20.56° C | 48% | 1017.8 hPa | 0 mm | - | - | - |
| 1777887918 | 20° C | 50% | 1017.9 hPa | 0 mm | - | - | - |
| 1777887018 | 20° C | 51% | 1018.1 hPa | 0 mm | - | - | - |
| 1777886118 | 19.44° C | 53% | 1018.1 hPa | 0 mm | - | - | - |
| 1777885218 | 18.33° C | 54% | 1018.1 hPa | 0 mm | - | - | - |
| 1777884318 | 17.78° C | 56% | 1018 hPa | 0 mm | - | - | - |
| 1777883418 | 16.67° C | 60% | 1018 hPa | 0 mm | - | - | - |
| 1777882518 | 16.11° C | 62% | 1018 hPa | 0 mm | - | - | - |
| 1777881618 | 15.56° C | 65% | 1018.1 hPa | 0 mm | - | - | - |
| 1777880718 | 15° C | 67% | 1018.3 hPa | 0 mm | - | - | - |
| 1777879818 | 13.89° C | 69% | 1018.3 hPa | 0 mm | - | - | - |
| 1777878918 | 13.33° C | 73% | 1018.4 hPa | 0 mm | - | - | - |
| 1777878018 | 12.78° C | 75% | 1018.4 hPa | 0 mm | - | - | - |
| 1777877118 | 11.67° C | 80% | 1018.5 hPa | 0 mm | - | - | - |
| 1777876218 | 10° C | 84% | 1018.3 hPa | 0 mm | - | - | - |
* Rain latest hour (hover to see other rain measurements)
** Current wind speed in m/s (hover to see current wind gust speed)